Time;durP1;ratioP1;P1;durP2;ratioP2;P2;SDS_P1;SDS_P2;PMS_P1;PMS_P2;Temp;Humidity;BMP_temperature;BMP_pressure;BME280_temperature;BME280_humidity;BME280_pressure;Samples;Min_cycle;Max_cycle;Signal;HPM_P1;HPM_P2
2022/07/04 09:37:42;;;;;;;5.97;2.27;;;26.20;99.90;;;;;;4630705;28;20522;-64
2022/07/04 09:40:14;;;;;;;3.27;2.97;;;26.30;99.90;;;;;;5019283;28;20495;-64
2022/07/04 09:42:43;;;;;;;3.60;2.80;;;26.70;99.90;;;;;;5020066;28;20464;-64
2022/07/04 09:45:12;;;;;;;5.77;2.83;;;25.70;99.90;;;;;;5020341;28;20468;-63
2022/07/04 09:47:41;;;;;;;4.50;2.80;;;26.50;99.90;;;;;;5020602;28;20733;-64
2022/07/04 09:50:10;;;;;;;7.63;2.60;;;27.40;99.90;;;;;;5020336;28;20483;-64
2022/07/04 09:57:56;;;;;;;5.87;3.13;;;26.70;99.90;;;;;;5018186;28;20476;-64
2022/07/04 10:00:28;;;;;;;5.03;2.80;;;27.20;99.90;;;;;;5019739;28;20503;-64
2022/07/04 10:03:16;;;;;;;3.60;3.10;;;26.70;99.90;;;;;;5016369;28;20941;-62
2022/07/04 10:05:44;;;;;;;4.83;3.90;;;27.30;99.90;;;;;;4999535;28;20770;-64
2022/07/04 10:08:11;;;;;;;2.70;2.30;;;27.30;99.90;;;;;;4999845;28;20486;-64
2022/07/04 10:10:44;;;;;;;4.30;2.87;;;27.90;99.90;;;;;;5001729;28;20796;-64
2022/07/04 10:13:16;;;;;;;4.10;3.70;;;28.40;99.90;;;;;;4999839;28;20839;-64
2022/07/04 10:15:44;;;;;;;4.10;2.70;;;27.70;99.90;;;;;;5000068;28;20527;-63
2022/07/04 10:18:16;;;;;;;3.83;2.70;;;28.60;99.90;;;;;;5000548;28;20464;-64
2022/07/04 10:20:51;;;;;;;4.20;2.73;;;28.90;99.90;;;;;;4999648;28;20493;-64
2022/07/04 10:23:20;;;;;;;2.50;2.23;;;28.70;99.90;;;;;;4999672;28;20821;-64
2022/07/04 10:25:50;;;;;;;1.77;1.57;;;28.80;99.90;;;;;;4999738;28;20504;-64
2022/07/04 10:28:20;;;;;;;3.40;2.30;;;28.60;99.90;;;;;;5000016;28;20896;-64
2022/07/04 10:30:52;;;;;;;3.10;2.90;;;27.50;99.90;;;;;;4999431;28;20461;-64
2022/07/04 10:33:28;;;;;;;4.37;2.20;;;27.00;99.90;;;;;;4999658;28;20975;-63
2022/07/04 10:35:57;;;;;;;2.70;2.50;;;27.70;99.90;;;;;;4999473;28;20820;-63
2022/07/04 10:38:29;;;;;;;2.93;2.70;;;28.20;99.90;;;;;;4999615;28;20508;-64
2022/07/04 10:40:59;;;;;;;2.73;2.40;;;27.60;99.90;;;;;;4998379;28;20580;-64
2022/07/04 10:44:03;;;;;;;2.70;2.00;;;28.00;99.90;;;;;;4998565;28;20836;-64
2022/07/04 10:46:40;;;;;;;3.90;2.43;;;28.90;99.90;;;;;;5006962;28;20455;-64
2022/07/04 10:49:22;;;;;;;3.80;2.23;;;29.20;99.90;;;;;;5036840;28;20458;-64
2022/07/04 10:51:52;;;;;;;3.13;2.63;;;29.00;99.90;;;;;;5038139;28;20756;-65
2022/07/04 10:54:21;;;;;;;3.60;2.50;;;29.20;99.90;;;;;;5037643;28;20463;-64
2022/07/04 10:56:54;;;;;;;4.17;2.83;;;29.40;99.90;;;;;;5037676;28;20927;-63
2022/07/04 10:59:25;;;;;;;2.67;2.40;;;29.80;99.90;;;;;;5037121;28;20501;-64
2022/07/04 11:02:43;;;;;;;2.23;1.70;;;29.40;99.90;;;;;;5038177;28;20470;-65
2022/07/04 11:05:11;;;;;;;2.57;1.80;;;30.10;99.90;;;;;;4956918;29;20433;-64
2022/07/04 11:08:00;;;;;;;2.10;1.80;;;29.30;99.90;;;;;;5021235;28;20462;-64
2022/07/04 11:10:31;;;;;;;2.87;2.30;;;29.30;99.90;;;;;;5033178;28;20469;-64
2022/07/04 11:13:15;;;;;;;2.57;2.27;;;30.00;99.90;;;;;;5018490;28;20955;-64
2022/07/04 11:16:04;;;;;;;2.20;2.10;;;28.20;99.90;;;;;;5018355;28;20479;-63
2022/07/04 11:18:39;;;;;;;8.10;2.80;;;27.10;99.90;;;;;;5018861;28;20766;-64
2022/07/04 11:21:16;;;;;;;3.43;2.10;;;26.80;99.90;;;;;;5017842;28;20947;-64
2022/07/04 11:23:55;;;;;;;5.40;2.20;;;27.00;99.90;;;;;;5019653;28;20834;-64
2022/07/04 11:26:24;;;;;;;5.27;2.87;;;28.00;99.90;;;;;;5038050;28;20502;-64
2022/07/04 11:28:51;;;;;;;4.03;2.47;;;28.50;99.90;;;;;;5037704;28;20882;-64
2022/07/04 11:31:20;;;;;;;2.40;2.20;;;29.50;99.90;;;;;;5037773;28;20502;-63
2022/07/04 11:33:48;;;;;;;3.50;1.77;;;29.70;99.90;;;;;;5025240;28;20755;-63
2022/07/04 11:36:22;;;;;;;4.90;2.80;;;28.40;99.90;;;;;;4997388;28;20893;-63
2022/07/04 11:38:53;;;;;;;2.30;2.10;;;27.20;99.90;;;;;;4997643;28;20465;-63
2022/07/04 11:47:09;;;;;;;2.73;2.13;;;28.10;99.90;;;;;;5017432;28;20907;-63
2022/07/04 11:49:43;;;;;;;3.10;2.20;;;28.60;99.90;;;;;;5017958;28;20749;-64
2022/07/04 11:52:10;;;;;;;2.40;2.20;;;28.90;99.90;;;;;;5021517;28;20890;-64
2022/07/04 11:54:37;;;;;;;2.80;2.13;;;28.30;99.90;;;;;;5016242;28;21058;-64
2022/07/04 11:57:28;;;;;;;3.40;2.27;;;29.30;99.90;;;;;;5016977;28;20495;-63
2022/07/04 11:59:58;;;;;;;2.70;2.50;;;28.80;99.90;;;;;;5015691;28;20496;-62
2022/07/04 12:02:32;;;;;;;3.50;2.07;;;27.90;99.90;;;;;;5017671;28;20480;-63
2022/07/04 12:05:05;;;;;;;1.90;1.80;;;27.70;99.90;;;;;;5019358;28;20498;-63
2022/07/04 12:07:38;;;;;;;3.10;2.00;;;28.60;99.90;;;;;;5016453;28;20524;-63
2022/07/04 12:10:12;;;;;;;2.40;2.10;;;29.40;99.90;;;;;;5016001;28;20464;-64
2022/07/04 12:12:59;;;;;;;2.17;1.97;;;29.40;99.90;;;;;;5017762;28;20460;-63
2022/07/04 12:15:36;;;;;;;2.57;2.33;;;27.90;99.90;;;;;;5016066;28;20475;-65
2022/07/04 12:18:06;;;;;;;2.00;1.43;;;28.50;99.90;;;;;;5017207;28;20487;-64
2022/07/04 12:20:34;;;;;;;2.90;2.00;;;28.80;99.90;;;;;;5017342;28;20833;-64
2022/07/04 12:23:03;;;;;;;2.53;1.73;;;28.50;99.90;;;;;;5017173;28;20830;-63
2022/07/04 12:25:34;;;;;;;6.00;2.27;;;28.60;99.90;;;;;;5016834;28;20475;-62
2022/07/04 12:28:03;;;;;;;3.60;2.33;;;28.40;99.90;;;;;;5015308;28;20464;-63
2022/07/04 12:30:35;;;;;;;5.10;2.00;;;27.90;99.90;;;;;;5018418;28;20472;-63
2022/07/04 12:33:08;;;;;;;3.43;2.07;;;27.30;99.90;;;;;;5016926;28;20470;-63
2022/07/04 12:35:38;;;;;;;3.87;2.10;;;26.60;99.90;;;;;;5017342;28;20743;-63
2022/07/04 12:38:12;;;;;;;3.83;2.40;;;26.90;99.90;;;;;;5017186;28;20521;-63
2022/07/04 12:40:52;;;;;;;3.20;2.17;;;27.40;99.90;;;;;;5017574;28;20491;-63
2022/07/04 12:43:23;;;;;;;1.80;1.70;;;27.50;99.90;;;;;;5016917;28;20467;-63
2022/07/04 12:45:54;;;;;;;2.57;2.20;;;26.90;99.90;;;;;;5017082;28;20560;-63
2022/07/04 12:48:26;;;;;;;2.43;2.07;;;26.20;99.90;;;;;;5017460;28;20996;-62
2022/07/04 12:50:54;;;;;;;2.40;2.20;;;24.90;99.90;;;;;;5016953;28;20460;-63
2022/07/04 12:53:22;;;;;;;6.50;2.73;;;24.20;99.90;;;;;;5016790;28;20456;-63
2022/07/04 12:55:51;;;;;;;4.80;2.10;;;25.20;99.90;;;;;;5016699;28;20502;-64
2022/07/04 12:58:18;;;;;;;2.67;2.37;;;27.00;99.90;;;;;;5017151;28;20464;-63
2022/07/04 13:00:52;;;;;;;3.77;2.47;;;27.50;99.90;;;;;;5016696;28;20499;-63
2022/07/04 13:03:24;;;;;;;4.53;2.40;;;28.10;99.90;;;;;;5016796;28;20554;-63
2022/07/04 13:05:57;;;;;;;3.03;2.10;;;27.50;99.90;;;;;;5017199;28;20471;-63
2022/07/04 13:08:24;;;;;;;3.23;2.17;;;27.40;99.90;;;;;;5016437;28;20467;-63
2022/07/04 13:13:36;;;;;;;2.90;2.63;;;26.70;99.90;;;;;;5018236;28;20447;-63
2022/07/04 13:16:06;;;;;;;2.43;2.03;;;26.50;99.90;;;;;;5021092;28;20468;-63
2022/07/04 13:18:33;;;;;;;2.70;2.13;;;26.80;99.90;;;;;;5020537;28;20926;-63
2022/07/04 13:21:03;;;;;;;3.20;2.30;;;26.50;99.90;;;;;;5000872;28;20622;-63
2022/07/04 13:23:30;;;;;;;3.80;2.10;;;26.30;99.90;;;;;;5000823;28;20472;-63
2022/07/04 13:26:01;;;;;;;3.60;2.23;;;25.90;99.90;;;;;;5000883;28;20471;-64
2022/07/04 13:28:28;;;;;;;2.93;2.63;;;26.20;99.90;;;;;;5001058;28;20461;-63
2022/07/04 13:30:55;;;;;;;2.10;1.97;;;26.50;99.90;;;;;;4999992;28;20838;-64
2022/07/04 13:33:25;;;;;;;3.30;2.10;;;27.20;99.90;;;;;;5015751;28;20562;-64
2022/07/04 13:35:57;;;;;;;3.40;2.83;;;27.20;99.90;;;;;;5016412;28;20507;-63
2022/07/04 13:38:27;;;;;;;2.70;2.50;;;27.10;99.90;;;;;;5000920;28;20460;-63
2022/07/04 13:40:56;;;;;;;2.40;2.20;;;27.00;99.90;;;;;;4999873;28;20871;-63
2022/07/04 13:43:29;;;;;;;2.37;2.03;;;27.30;99.90;;;;;;5000721;28;20480;-63
2022/07/04 13:45:57;;;;;;;2.30;2.07;;;26.40;99.90;;;;;;5001189;28;20465;-63
2022/07/04 13:48:25;;;;;;;2.80;2.03;;;26.40;99.90;;;;;;5020029;28;20752;-64
2022/07/04 13:50:52;;;;;;;2.10;2.00;;;26.90;99.90;;;;;;5019201;28;20891;-64
2022/07/04 13:53:33;;;;;;;2.87;2.20;;;28.10;99.90;;;;;;5019357;28;20498;-63
2022/07/04 13:56:08;;;;;;;3.60;2.00;;;28.10;99.90;;;;;;5020025;28;20838;-63
2022/07/04 13:58:36;;;;;;;5.77;2.40;;;27.50;99.90;;;;;;5020056;28;20485;-64
2022/07/04 14:03:49;;;;;;;2.90;2.17;;;27.80;99.90;;;;;;5010002;28;20699;-64
2022/07/04 14:06:20;;;;;;;3.00;2.57;;;28.00;99.90;;;;;;5001503;28;20961;-63
2022/07/04 14:08:51;;;;;;;3.43;2.30;;;27.70;99.90;;;;;;5019099;28;20460;-63
2022/07/04 14:11:25;;;;;;;2.90;2.60;;;27.80;99.90;;;;;;5018828;28;20466;-63
2022/07/04 14:13:55;;;;;;;4.40;2.80;;;27.50;99.90;;;;;;5019655;28;20487;-63
2022/07/04 14:16:26;;;;;;;2.30;2.17;;;27.60;99.90;;;;;;5019466;28;20475;-63
2022/07/04 14:18:54;;;;;;;2.60;2.40;;;27.50;99.90;;;;;;5019154;28;20543;-63
2022/07/04 14:21:22;;;;;;;2.40;2.30;;;26.80;99.90;;;;;;5019359;28;20496;-64
2022/07/04 14:23:49;;;;;;;2.03;1.93;;;26.60;99.90;;;;;;5019442;28;20910;-63
2022/07/04 14:26:24;;;;;;;5.77;2.53;;;26.20;99.90;;;;;;5017359;28;20464;-63
2022/07/04 14:28:54;;;;;;;2.70;2.20;;;25.80;99.90;;;;;;5015107;28;20474;-59
2022/07/04 14:31:21;;;;;;;2.37;2.17;;;25.20;99.90;;;;;;5038066;28;20459;-64
2022/07/04 14:33:48;;;;;;;2.60;2.30;;;25.80;99.90;;;;;;5037214;28;20458;-63
2022/07/04 14:36:17;;;;;;;2.13;1.93;;;26.30;99.90;;;;;;5038235;28;20889;-63
2022/07/04 14:38:47;;;;;;;2.10;1.93;;;25.50;99.90;;;;;;5036374;28;20490;-63
2022/07/04 14:41:20;;;;;;;3.50;1.90;;;25.90;99.90;;;;;;5015470;28;20480;-63
2022/07/04 14:43:49;;;;;;;3.37;2.07;;;25.80;99.90;;;;;;5015749;28;20557;-63
2022/07/04 14:46:25;;;;;;;3.30;2.10;;;25.50;99.90;;;;;;5016797;28;20471;-63
2022/07/04 14:48:52;;;;;;;3.00;2.70;;;24.90;99.90;;;;;;5018301;28;20460;-63
2022/07/04 14:51:20;;;;;;;4.17;2.37;;;25.00;99.90;;;;;;5017205;28;20460;-64
2022/07/04 14:53:47;;;;;;;2.30;2.10;;;24.80;99.90;;;;;;5017512;28;20730;-63
2022/07/04 14:56:17;;;;;;;3.20;2.53;;;24.90;99.90;;;;;;5017019;28;20487;-64
2022/07/04 14:58:44;;;;;;;3.23;2.13;;;25.00;99.90;;;;;;5017460;28;20589;-63
2022/07/04 15:01:12;;;;;;;7.50;2.50;;;25.10;99.90;;;;;;5017522;28;20492;-64
2022/07/04 15:03:41;;;;;;;2.83;2.10;;;24.90;99.90;;;;;;5018077;28;20468;-64
2022/07/04 15:06:11;;;;;;;2.77;2.50;;;25.00;99.90;;;;;;5017684;28;20908;-64
2022/07/04 15:08:39;;;;;;;2.43;2.17;;;25.40;99.90;;;;;;5018689;28;20911;-63
2022/07/04 15:11:07;;;;;;;3.80;2.70;;;25.50;99.90;;;;;;5018057;28;20483;-63
2022/07/04 15:13:37;;;;;;;4.10;2.90;;;25.50;99.90;;;;;;5018255;28;20474;-63
2022/07/04 15:16:06;;;;;;;3.40;2.60;;;24.80;99.90;;;;;;5018392;28;20470;-63
2022/07/04 15:18:34;;;;;;;2.23;2.03;;;24.50;99.90;;;;;;5018849;28;20464;-62
2022/07/04 15:26:34;;;;;;;2.20;2.00;;;25.80;99.90;;;;;;5031519;28;20520;-63
2022/07/04 15:29:05;;;;;;;3.00;2.20;;;26.30;99.90;;;;;;5036703;28;20467;-63
2022/07/04 15:31:33;;;;;;;2.67;2.17;;;26.60;99.90;;;;;;5036474;28;20471;-63
2022/07/04 15:34:02;;;;;;;3.40;2.60;;;26.20;99.90;;;;;;5036948;28;20470;-63
2022/07/04 15:36:32;;;;;;;3.93;2.30;;;25.70;99.90;;;;;;5036825;28;20474;-63
2022/07/04 15:38:59;;;;;;;5.33;2.80;;;25.20;99.90;;;;;;5037477;28;20463;-63
2022/07/04 15:41:29;;;;;;;2.50;2.27;;;25.20;99.90;;;;;;5036890;28;20540;-63
2022/07/04 15:44:01;;;;;;;3.30;1.93;;;25.60;99.90;;;;;;5037634;28;20474;-63
2022/07/04 15:46:28;;;;;;;5.40;2.00;;;25.90;99.90;;;;;;5036233;28;20476;-63
2022/07/04 15:48:58;;;;;;;3.10;2.47;;;25.90;99.90;;;;;;5037272;28;20722;-63
2022/07/04 15:51:38;;;;;;;5.63;2.67;;;25.50;99.90;;;;;;5037283;28;20775;-63
2022/07/04 15:54:05;;;;;;;3.13;2.13;;;25.10;99.90;;;;;;5037643;28;20493;-63
2022/07/04 15:56:35;;;;;;;2.60;2.40;;;24.70;99.90;;;;;;5037549;28;20501;-63
2022/07/04 15:59:04;;;;;;;2.60;2.40;;;25.20;99.90;;;;;;5037043;28;20482;-63
2022/07/04 16:01:33;;;;;;;4.10;2.67;;;25.50;99.90;;;;;;5037186;28;20491;-63
2022/07/04 16:04:00;;;;;;;2.90;2.60;;;25.60;99.90;;;;;;5036537;28;20794;-63
2022/07/04 16:06:31;;;;;;;3.37;2.30;;;25.90;99.90;;;;;;5036486;28;20467;-63
2022/07/04 16:08:58;;;;;;;4.80;2.47;;;26.10;99.90;;;;;;5036461;28;20498;-62
2022/07/04 16:11:26;;;;;;;2.43;2.23;;;26.30;99.90;;;;;;5036226;28;20470;-63
2022/07/04 16:13:53;;;;;;;2.30;1.87;;;26.20;99.90;;;;;;5036619;28;20970;-63
2022/07/04 16:16:21;;;;;;;4.93;2.80;;;26.70;99.90;;;;;;5036885;28;20466;-63
2022/07/04 16:18:50;;;;;;;3.03;2.33;;;27.20;99.90;;;;;;5037047;28;20841;-63
2022/07/04 16:21:22;;;;;;;3.40;2.50;;;27.70;99.90;;;;;;5036866;28;20586;-63
2022/07/04 16:23:51;;;;;;;2.70;2.50;;;27.80;99.90;;;;;;5037061;28;20558;-63
2022/07/04 16:26:20;;;;;;;6.13;4.50;;;27.40;99.90;;;;;;5036591;28;20463;-63
2022/07/04 16:28:49;;;;;;;6.60;6.00;;;26.60;99.90;;;;;;5036217;28;20474;-63
2022/07/04 16:31:19;;;;;;;3.27;2.97;;;26.60;99.90;;;;;;5035855;28;20465;-63
2022/07/04 16:33:46;;;;;;;2.63;2.43;;;26.00;99.90;;;;;;5036973;28;20467;-63
2022/07/04 16:36:17;;;;;;;3.97;2.10;;;26.10;99.90;;;;;;5036901;28;20467;-63
2022/07/04 16:38:44;;;;;;;2.50;2.30;;;26.50;99.90;;;;;;5037089;28;20463;-63
2022/07/04 16:41:30;;;;;;;2.50;2.00;;;26.60;99.90;;;;;;5035599;28;20527;-63
2022/07/04 16:43:59;;;;;;;2.67;2.17;;;26.70;99.90;;;;;;5008513;28;20502;-62
2022/07/04 16:46:28;;;;;;;3.30;2.40;;;26.70;99.90;;;;;;5019169;28;20464;-63
2022/07/04 16:49:00;;;;;;;2.73;2.47;;;26.60;99.90;;;;;;5019097;28;20464;-63
2022/07/04 16:51:31;;;;;;;5.53;2.53;;;26.70;99.90;;;;;;5021047;28;20586;-63
2022/07/04 16:53:59;;;;;;;4.63;2.50;;;26.60;99.90;;;;;;5020812;28;20600;-63
2022/07/04 16:56:29;;;;;;;4.50;2.63;;;26.60;99.90;;;;;;5020239;28;20491;-63
2022/07/04 16:59:07;;;;;;;4.60;2.23;;;26.80;99.90;;;;;;5020685;28;20470;-63
2022/07/04 17:01:41;;;;;;;3.40;2.30;;;26.60;99.90;;;;;;5020441;28;20470;-63
2022/07/04 17:04:09;;;;;;;2.60;2.37;;;26.60;99.90;;;;;;5020944;28;20463;-63
2022/07/04 17:06:42;;;;;;;4.27;2.57;;;25.90;99.90;;;;;;5020631;28;20815;-63
2022/07/04 17:09:16;;;;;;;2.80;2.50;;;26.00;99.90;;;;;;5019961;28;20826;-63
2022/07/04 17:11:47;;;;;;;3.33;2.53;;;25.80;99.90;;;;;;5020347;28;20471;-63
2022/07/04 17:14:16;;;;;;;2.50;2.30;;;25.40;99.90;;;;;;5020308;28;20558;-63
2022/07/04 17:16:43;;;;;;;2.40;2.20;;;25.40;99.90;;;;;;5017728;28;20474;-63
2022/07/04 17:19:15;;;;;;;5.27;2.50;;;25.50;99.90;;;;;;5019163;28;20562;-63
2022/07/04 17:21:44;;;;;;;7.20;1.90;;;25.60;99.90;;;;;;5018638;28;20492;-63
2022/07/04 17:24:12;;;;;;;2.60;2.27;;;25.60;99.90;;;;;;5018041;28;20471;-63
2022/07/04 17:26:43;;;;;;;2.67;2.30;;;25.20;99.90;;;;;;5020933;28;20486;-63
2022/07/04 17:29:13;;;;;;;3.47;2.03;;;25.20;99.90;;;;;;5020063;28;20464;-62
2022/07/04 17:31:44;;;;;;;2.50;2.10;;;24.90;99.90;;;;;;5019896;28;20467;-63
2022/07/04 17:34:12;;;;;;;3.90;2.30;;;24.90;99.90;;;;;;5020467;28;20495;-63
2022/07/04 17:36:41;;;;;;;4.80;2.60;;;24.80;99.90;;;;;;5020100;28;20464;-63
2022/07/04 17:39:08;;;;;;;4.77;2.80;;;24.50;99.90;;;;;;5018073;28;20495;-62
2022/07/04 17:41:44;;;;;;;4.17;2.47;;;24.60;99.90;;;;;;5014744;28;20755;-62
2022/07/04 17:44:12;;;;;;;3.17;2.03;;;24.70;99.90;;;;;;5018948;28;20796;-62
2022/07/04 17:46:53;;;;;;;2.67;2.37;;;24.50;99.90;;;;;;5019728;28;20479;-63
2022/07/04 17:49:22;;;;;;;2.67;2.33;;;24.30;99.90;;;;;;5019878;28;20464;-63
2022/07/04 17:51:53;;;;;;;3.10;2.30;;;24.30;99.90;;;;;;5020249;28;20459;-62
2022/07/04 17:54:22;;;;;;;2.67;2.40;;;24.30;99.90;;;;;;5020244;28;20459;-63
2022/07/04 17:56:54;;;;;;;2.30;2.10;;;24.10;99.90;;;;;;5008733;28;20500;-63
2022/07/04 17:59:23;;;;;;;2.90;2.20;;;23.90;99.90;;;;;;4999875;28;20902;-63
2022/07/04 18:01:54;;;;;;;2.80;2.57;;;23.90;99.90;;;;;;5016049;28;20492;-62
2022/07/04 18:04:21;;;;;;;2.70;2.50;;;23.70;99.90;;;;;;5007517;28;20468;-62
2022/07/04 18:06:49;;;;;;;3.20;2.60;;;23.60;99.90;;;;;;5018270;28;20471;-62
2022/07/04 18:09:17;;;;;;;2.90;2.70;;;23.80;99.90;;;;;;4995558;28;20483;-63
2022/07/04 18:11:46;;;;;;;3.13;2.57;;;23.60;99.90;;;;;;5005863;28;20535;-63
2022/07/04 18:14:17;;;;;;;3.80;2.70;;;23.60;99.90;;;;;;5003289;28;20453;-63
2022/07/04 18:16:45;;;;;;;4.07;3.00;;;23.50;99.90;;;;;;5009940;28;20468;-63
2022/07/04 18:19:15;;;;;;;3.47;2.60;;;23.50;99.90;;;;;;4999494;28;20465;-63
2022/07/04 18:21:42;;;;;;;3.63;3.10;;;23.50;99.90;;;;;;4998239;28;20481;-62
2022/07/04 18:24:17;;;;;;;4.57;2.77;;;23.40;99.90;;;;;;4998280;28;20481;-62
2022/07/04 18:26:44;;;;;;;4.47;2.93;;;23.20;99.90;;;;;;5010309;28;20474;-63
2022/07/04 18:29:11;;;;;;;3.37;2.40;;;23.20;99.90;;;;;;5018171;28;20472;-61
2022/07/04 18:31:39;;;;;;;2.60;2.40;;;23.10;99.90;;;;;;4998138;28;20469;-62
2022/07/04 18:34:09;;;;;;;3.53;2.60;;;22.80;99.90;;;;;;5007955;28;20460;-63
2022/07/04 18:36:39;;;;;;;3.60;2.67;;;22.80;99.90;;;;;;5004198;28;20977;-62
2022/07/04 18:39:09;;;;;;;3.20;2.60;;;22.80;99.90;;;;;;5001220;28;20504;-63
2022/07/04 18:44:26;;;;;;;2.57;2.37;;;22.60;99.90;;;;;;5019189;28;20555;-62
2022/07/04 18:46:58;;;;;;;5.87;2.70;;;22.60;99.90;;;;;;4996617;28;20913;-62
2022/07/04 18:49:25;;;;;;;3.13;2.67;;;22.60;99.90;;;;;;5016269;28;20531;-62
2022/07/04 18:51:54;;;;;;;5.97;2.40;;;22.60;99.90;;;;;;5017374;28;20983;-62
2022/07/04 18:54:22;;;;;;;3.07;2.20;;;22.60;99.90;;;;;;5019531;28;20463;-62
2022/07/04 18:56:51;;;;;;;2.93;2.43;;;22.50;99.90;;;;;;5029346;28;20870;-62
2022/07/04 18:59:20;;;;;;;2.83;2.60;;;22.40;99.90;;;;;;5038699;28;20463;-62
2022/07/04 19:01:50;;;;;;;4.77;2.70;;;22.40;99.90;;;;;;5038498;28;20590;-62
2022/07/04 19:04:17;;;;;;;6.23;3.40;;;22.30;99.90;;;;;;5039057;28;20529;-62
2022/07/04 19:06:45;;;;;;;5.73;2.57;;;22.10;99.90;;;;;;5038343;28;20562;-62
2022/07/04 19:09:17;;;;;;;3.10;2.60;;;22.00;99.90;;;;;;5038464;28;20524;-62
2022/07/04 19:11:45;;;;;;;2.80;2.50;;;21.90;99.90;;;;;;5038012;28;20499;-62
2022/07/04 19:14:14;;;;;;;3.63;2.60;;;21.80;99.90;;;;;;5038246;28;20467;-62
2022/07/04 19:16:45;;;;;;;3.20;2.90;;;21.80;99.90;;;;;;5039669;28;20521;-62
2022/07/04 19:19:12;;;;;;;10.83;2.70;;;21.80;99.90;;;;;;5038565;28;20499;-62
2022/07/04 19:21:40;;;;;;;5.73;2.90;;;21.80;99.90;;;;;;5037633;28;20550;-62
2022/07/04 19:24:07;;;;;;;4.70;2.93;;;21.90;99.90;;;;;;5038390;28;20506;-62
2022/07/04 19:26:38;;;;;;;4.70;2.80;;;21.80;99.90;;;;;;5021914;28;20476;-62
2022/07/04 19:29:10;;;;;;;4.13;2.20;;;21.70;99.90;;;;;;5018176;28;20560;-62
2022/07/04 19:31:38;;;;;;;3.90;2.83;;;21.60;99.90;;;;;;5018267;28;20468;-62
2022/07/04 19:34:09;;;;;;;4.03;2.67;;;21.50;99.90;;;;;;5017270;28;20531;-62
2022/07/04 19:36:39;;;;;;;4.90;2.93;;;21.40;99.90;;;;;;5016700;28;20844;-62
2022/07/04 19:39:07;;;;;;;3.80;2.70;;;21.30;99.90;;;;;;5018068;28;20495;-62
2022/07/04 19:41:59;;;;;;;6.33;3.53;;;21.20;99.90;;;;;;5016920;28;20430;-62
2022/07/04 19:44:27;;;;;;;3.40;2.90;;;21.10;99.90;;;;;;5017596;28;20452;-62
2022/07/04 19:46:57;;;;;;;6.30;3.50;;;21.00;99.90;;;;;;5018043;28;20464;-62
2022/07/04 19:49:26;;;;;;;4.20;3.10;;;20.90;99.90;;;;;;5018000;28;20460;-62
2022/07/04 19:54:41;;;;;;;3.60;3.03;;;20.70;99.90;;;;;;5014144;28;20458;-62
2022/07/04 19:57:12;;;;;;;3.67;3.30;;;20.60;99.90;;;;;;5033902;28;20498;-63
2022/07/04 19:59:44;;;;;;;3.80;3.50;;;20.50;99.90;;;;;;5035954;28;20765;-62
2022/07/04 20:02:13;;;;;;;4.60;3.10;;;20.50;99.90;;;;;;5036940;28;20495;-62
2022/07/04 20:04:41;;;;;;;4.20;3.40;;;20.40;99.90;;;;;;5021205;28;20464;-60
2022/07/04 20:07:09;;;;;;;4.50;3.17;;;20.40;99.90;;;;;;5014716;28;20463;-62
2022/07/04 20:09:38;;;;;;;4.30;3.60;;;20.30;99.90;;;;;;5015655;28;20512;-62
2022/07/04 20:12:06;;;;;;;4.73;3.07;;;20.20;99.90;;;;;;5016197;28;20826;-62
2022/07/04 20:14:35;;;;;;;6.67;3.20;;;20.20;99.90;;;;;;5017127;28;20464;-62
2022/07/04 20:17:02;;;;;;;5.23;3.50;;;20.20;99.90;;;;;;5016839;28;20474;-62
2022/07/04 20:19:33;;;;;;;6.33;3.43;;;20.00;99.90;;;;;;5017213;28;20537;-61
2022/07/04 20:22:13;;;;;;;4.70;3.37;;;19.90;99.90;;;;;;5016489;28;20766;-61
2022/07/04 20:24:43;;;;;;;3.50;3.20;;;19.80;99.90;;;;;;5016173;28;20467;-63
2022/07/04 20:27:15;;;;;;;4.57;3.47;;;19.60;99.90;;;;;;5017610;28;20558;-62
2022/07/04 20:29:47;;;;;;;4.47;3.97;;;19.50;99.90;;;;;;5015551;28;20464;-61
2022/07/04 20:32:18;;;;;;;4.87;3.90;;;19.60;99.90;;;;;;5017686;28;20438;-62
2022/07/04 20:34:57;;;;;;;6.10;4.83;;;19.50;99.90;;;;;;5017065;28;20487;-61
2022/07/04 20:37:26;;;;;;;6.17;4.20;;;19.40;99.90;;;;;;5017937;28;20885;-61
2022/07/04 20:39:55;;;;;;;6.00;4.77;;;19.40;99.90;;;;;;5017309;28;20896;-62
2022/07/04 20:42:28;;;;;;;6.13;5.47;;;19.30;99.90;;;;;;5017161;28;20491;-62
2022/07/04 20:44:57;;;;;;;7.00;5.43;;;19.30;99.90;;;;;;5015964;28;20764;-62
2022/07/04 20:47:24;;;;;;;7.60;5.77;;;19.20;99.90;;;;;;5016844;28;20468;-62
2022/07/04 20:49:51;;;;;;;7.13;4.60;;;19.20;99.90;;;;;;5016923;28;20496;-62
2022/07/04 20:52:19;;;;;;;5.53;5.00;;;19.10;99.90;;;;;;4999330;28;20554;-62
2022/07/04 20:54:49;;;;;;;5.87;5.27;;;19.10;99.90;;;;;;5017388;28;20466;-62
2022/07/04 20:57:19;;;;;;;7.20;4.80;;;19.10;99.90;;;;;;5001871;28;20455;-62
2022/07/04 20:59:46;;;;;;;5.57;5.07;;;19.00;99.90;;;;;;5017055;28;20460;-62
2022/07/04 21:02:19;;;;;;;7.07;5.53;;;18.90;99.90;;;;;;5017186;28;20492;-62
2022/07/04 21:04:46;;;;;;;6.10;4.57;;;19.00;99.90;;;;;;5016624;28;20518;-61
2022/07/04 21:07:14;;;;;;;5.57;4.60;;;18.90;99.90;;;;;;5017084;28;20761;-61
2022/07/04 21:09:44;;;;;;;5.73;4.20;;;18.80;99.90;;;;;;5016457;28;20502;-61
2022/07/04 21:12:12;;;;;;;7.73;4.20;;;18.70;99.90;;;;;;5016831;28;20467;-61
2022/07/04 21:14:42;;;;;;;4.60;4.00;;;18.60;99.90;;;;;;5016626;28;20464;-61
2022/07/04 21:17:15;;;;;;;4.40;3.80;;;18.60;99.90;;;;;;5016337;28;20488;-62
2022/07/04 21:19:43;;;;;;;4.00;3.70;;;18.50;99.90;;;;;;5016159;28;20464;-62
2022/07/04 21:22:15;;;;;;;4.97;3.60;;;18.50;99.90;;;;;;5016811;28;20476;-61
2022/07/04 21:24:48;;;;;;;5.60;3.70;;;18.50;99.90;;;;;;5016427;28;20484;-61
2022/07/04 21:27:20;;;;;;;5.17;4.17;;;18.40;99.90;;;;;;5016264;28;20460;-62
2022/07/04 21:29:49;;;;;;;4.40;3.60;;;18.30;99.90;;;;;;5015398;28;20519;-62
2022/07/04 21:32:18;;;;;;;5.30;4.20;;;18.30;99.90;;;;;;5016410;28;20466;-61
2022/07/04 21:34:55;;;;;;;5.03;4.00;;;18.20;99.90;;;;;;5018422;28;20562;-61
2022/07/04 21:37:23;;;;;;;3.93;3.60;;;18.20;99.90;;;;;;5020015;28;20623;-61
2022/07/04 21:39:51;;;;;;;4.90;3.43;;;18.20;99.90;;;;;;5020430;28;20514;-62
2022/07/04 21:42:21;;;;;;;7.53;3.73;;;18.10;99.90;;;;;;5018736;28;20892;-62
2022/07/04 21:44:51;;;;;;;5.40;4.07;;;18.00;99.90;;;;;;5019599;28;20926;-62
2022/07/04 21:47:18;;;;;;;4.20;3.80;;;17.90;99.90;;;;;;5018450;28;20461;-61
2022/07/04 21:49:47;;;;;;;4.27;3.80;;;17.80;99.90;;;;;;5039983;28;20471;-61
2022/07/04 21:52:16;;;;;;;5.10;3.87;;;17.70;99.90;;;;;;5023634;28;20470;-61
2022/07/04 21:54:52;;;;;;;5.63;3.57;;;17.70;99.90;;;;;;5020010;28;20464;-62
2022/07/04 21:57:20;;;;;;;5.33;3.73;;;17.60;99.90;;;;;;5035222;28;20491;-61
2022/07/04 21:59:49;;;;;;;4.33;3.80;;;17.60;99.90;;;;;;5039701;28;20467;-62
2022/07/04 22:02:16;;;;;;;6.23;3.43;;;17.50;99.90;;;;;;5038858;28;20463;-62
2022/07/04 22:04:46;;;;;;;5.07;3.90;;;17.40;99.90;;;;;;5024029;28;20460;-62
2022/07/04 22:07:15;;;;;;;4.77;4.00;;;17.30;99.90;;;;;;5018554;28;20464;-62
2022/07/04 22:09:46;;;;;;;5.13;4.37;;;17.20;99.90;;;;;;5019341;28;20471;-62
2022/07/04 22:12:13;;;;;;;4.63;4.20;;;17.20;99.90;;;;;;5019690;28;20696;-61
2022/07/04 22:14:41;;;;;;;5.87;4.50;;;17.10;99.90;;;;;;5020319;28;20801;-61
2022/07/04 22:17:08;;;;;;;4.97;4.43;;;17.10;99.90;;;;;;5019586;28;20772;-62
2022/07/04 22:19:39;;;;;;;5.50;4.50;;;17.10;99.90;;;;;;5019240;28;20495;-62
2022/07/04 22:22:13;;;;;;;6.40;4.33;;;17.00;99.90;;;;;;5019685;28;20459;-62
2022/07/04 22:24:40;;;;;;;4.90;4.40;;;16.90;99.90;;;;;;5019712;28;20999;-61
2022/07/04 22:27:08;;;;;;;6.97;4.03;;;16.90;99.90;;;;;;5019372;28;20523;-62
2022/07/04 22:29:36;;;;;;;5.47;4.47;;;16.80;99.90;;;;;;5019477;28;20820;-61
2022/07/04 22:32:07;;;;;;;6.87;4.37;;;16.80;99.90;;;;;;5019506;28;20506;-61
2022/07/04 22:34:37;;;;;;;4.33;3.93;;;16.70;99.90;;;;;;5018899;28;20829;-62
2022/07/04 22:37:04;;;;;;;5.80;4.57;;;16.70;99.90;;;;;;5015699;28;20476;-61
2022/07/04 22:39:32;;;;;;;6.00;5.23;;;16.60;99.90;;;;;;5038973;28;20962;-61
2022/07/04 22:41:59;;;;;;;9.13;4.50;;;16.50;99.90;;;;;;5037839;28;20469;-61
2022/07/04 22:44:31;;;;;;;7.33;4.47;;;16.50;99.90;;;;;;5038741;28;20509;-61
2022/07/04 22:47:10;;;;;;;5.90;4.47;;;16.40;99.90;;;;;;5037959;28;20470;-61
2022/07/04 22:49:37;;;;;;;5.13;4.73;;;16.30;99.90;;;;;;5039238;28;20554;-61
2022/07/04 22:52:06;;;;;;;6.60;5.07;;;16.10;99.90;;;;;;5038899;28;20565;-61
2022/07/04 22:54:54;;;;;;;8.13;4.47;;;16.10;99.90;;;;;;5038944;28;20542;-61
2022/07/04 22:57:24;;;;;;;6.83;4.27;;;16.00;99.90;;;;;;5038314;28;20947;-61
2022/07/04 22:59:54;;;;;;;11.83;4.43;;;16.00;99.90;;;;;;5038835;28;20565;-61
2022/07/04 23:02:22;;;;;;;5.17;4.43;;;15.90;99.90;;;;;;5038795;28;20463;-61
2022/07/04 23:04:52;;;;;;;6.27;3.87;;;15.90;99.90;;;;;;5038442;28;20517;-61
2022/07/04 23:07:23;;;;;;;4.20;3.80;;;15.90;99.90;;;;;;5038587;28;20463;-61
2022/07/04 23:09:54;;;;;;;5.30;4.67;;;15.90;99.90;;;;;;5038375;28;20507;-61